sensor_id;sensor_type;location;lat;lon;timestamp;P1;durP1;ratioP1;P2;durP2;ratioP2
20000;SDS011;10161;41.188;-8.642;2023-12-20T00:00:29;16.37;;;14.70;;
20000;SDS011;10161;41.188;-8.642;2023-12-20T00:02:56;17.67;;;15.60;;
20000;SDS011;10161;41.188;-8.642;2023-12-20T00:05:23;16.43;;;14.83;;
20000;SDS011;10161;41.188;-8.642;2023-12-20T00:07:50;17.23;;;15.53;;
20000;SDS011;10161;41.188;-8.642;2023-12-20T00:10:17;17.47;;;15.60;;
20000;SDS011;10161;41.188;-8.642;2023-12-20T00:12:45;17.67;;;15.80;;
20000;SDS011;10161;41.188;-8.642;2023-12-20T00:15:12;16.80;;;15.10;;
20000;SDS011;10161;41.188;-8.642;2023-12-20T00:17:39;15.90;;;14.40;;
20000;SDS011;10161;41.188;-8.642;2023-12-20T00:20:07;17.00;;;15.20;;
20000;SDS011;10161;41.188;-8.642;2023-12-20T00:22:34;17.20;;;15.50;;
20000;SDS011;10161;41.188;-8.642;2023-12-20T00:25:01;17.13;;;14.90;;
20000;SDS011;10161;41.188;-8.642;2023-12-20T00:27:28;15.53;;;13.93;;
20000;SDS011;10161;41.188;-8.642;2023-12-20T00:29:56;17.40;;;15.40;;
20000;SDS011;10161;41.188;-8.642;2023-12-20T00:32:23;16.40;;;14.23;;
20000;SDS011;10161;41.188;-8.642;2023-12-20T00:34:50;15.87;;;14.27;;
20000;SDS011;10161;41.188;-8.642;2023-12-20T00:37:17;16.87;;;15.17;;
20000;SDS011;10161;41.188;-8.642;2023-12-20T00:39:44;16.17;;;14.57;;
20000;SDS011;10161;41.188;-8.642;2023-12-20T00:42:11;16.70;;;14.63;;
20000;SDS011;10161;41.188;-8.642;2023-12-20T00:44:38;16.50;;;14.73;;
20000;SDS011;10161;41.188;-8.642;2023-12-20T00:47:06;14.70;;;13.20;;
20000;SDS011;10161;41.188;-8.642;2023-12-20T00:49:33;16.53;;;14.83;;
20000;SDS011;10161;41.188;-8.642;2023-12-20T00:52:00;17.27;;;15.57;;
20000;SDS011;10161;41.188;-8.642;2023-12-20T00:54:27;17.00;;;15.20;;
20000;SDS011;10161;41.188;-8.642;2023-12-20T00:56:55;15.40;;;13.80;;
20000;SDS011;10161;41.188;-8.642;2023-12-20T00:59:22;15.70;;;14.00;;
20000;SDS011;10161;41.188;-8.642;2023-12-20T01:01:49;16.80;;;15.00;;
20000;SDS011;10161;41.188;-8.642;2023-12-20T01:04:18;15.93;;;14.30;;
20000;SDS011;10161;41.188;-8.642;2023-12-20T01:06:45;15.37;;;13.77;;
20000;SDS011;10161;41.188;-8.642;2023-12-20T01:09:12;15.30;;;13.70;;
20000;SDS011;10161;41.188;-8.642;2023-12-20T01:11:39;16.10;;;14.40;;
20000;SDS011;10161;41.188;-8.642;2023-12-20T01:14:06;18.13;;;16.23;;
20000;SDS011;10161;41.188;-8.642;2023-12-20T01:16:33;15.67;;;14.00;;
20000;SDS011;10161;41.188;-8.642;2023-12-20T01:19:00;15.53;;;14.00;;
20000;SDS011;10161;41.188;-8.642;2023-12-20T01:21:28;14.33;;;12.93;;
20000;SDS011;10161;41.188;-8.642;2023-12-20T01:23:55;15.53;;;13.90;;
20000;SDS011;10161;41.188;-8.642;2023-12-20T01:26:22;14.90;;;13.40;;
20000;SDS011;10161;41.188;-8.642;2023-12-20T01:28:49;15.17;;;13.20;;
20000;SDS011;10161;41.188;-8.642;2023-12-20T01:31:16;15.93;;;14.33;;
20000;SDS011;10161;41.188;-8.642;2023-12-20T01:33:43;16.10;;;14.47;;
20000;SDS011;10161;41.188;-8.642;2023-12-20T01:36:10;16.00;;;14.30;;
20000;SDS011;10161;41.188;-8.642;2023-12-20T01:38:38;15.07;;;13.47;;
20000;SDS011;10161;41.188;-8.642;2023-12-20T01:41:05;15.37;;;13.83;;
20000;SDS011;10161;41.188;-8.642;2023-12-20T01:43:32;14.90;;;13.30;;
20000;SDS011;10161;41.188;-8.642;2023-12-20T01:45:59;15.83;;;14.23;;
20000;SDS011;10161;41.188;-8.642;2023-12-20T01:48:26;14.63;;;13.20;;
20000;SDS011;10161;41.188;-8.642;2023-12-20T01:50:54;15.70;;;14.10;;
20000;SDS011;10161;41.188;-8.642;2023-12-20T01:53:23;14.37;;;12.93;;
20000;SDS011;10161;41.188;-8.642;2023-12-20T01:55:52;14.70;;;13.30;;
20000;SDS011;10161;41.188;-8.642;2023-12-20T01:58:21;15.17;;;13.67;;
20000;SDS011;10161;41.188;-8.642;2023-12-20T02:00:48;14.83;;;13.20;;
20000;SDS011;10161;41.188;-8.642;2023-12-20T02:03:15;15.30;;;13.80;;
20000;SDS011;10161;41.188;-8.642;2023-12-20T02:05:42;14.63;;;13.23;;
20000;SDS011;10161;41.188;-8.642;2023-12-20T02:08:09;15.10;;;13.60;;
20000;SDS011;10161;41.188;-8.642;2023-12-20T02:10:36;15.03;;;13.43;;
20000;SDS011;10161;41.188;-8.642;2023-12-20T02:13:05;15.00;;;13.60;;
20000;SDS011;10161;41.188;-8.642;2023-12-20T02:15:32;15.43;;;13.90;;
20000;SDS011;10161;41.188;-8.642;2023-12-20T02:17:58;14.73;;;13.23;;
20000;SDS011;10161;41.188;-8.642;2023-12-20T02:20:25;14.07;;;12.63;;
20000;SDS011;10161;41.188;-8.642;2023-12-20T02:22:54;14.87;;;13.40;;
20000;SDS011;10161;41.188;-8.642;2023-12-20T02:25:21;14.03;;;12.63;;
20000;SDS011;10161;41.188;-8.642;2023-12-20T02:27:48;15.77;;;13.87;;
20000;SDS011;10161;41.188;-8.642;2023-12-20T02:30:16;14.63;;;13.07;;
20000;SDS011;10161;41.188;-8.642;2023-12-20T02:32:43;15.10;;;13.50;;
20000;SDS011;10161;41.188;-8.642;2023-12-20T02:35:10;15.53;;;13.90;;
20000;SDS011;10161;41.188;-8.642;2023-12-20T02:37:37;14.57;;;13.10;;
20000;SDS011;10161;41.188;-8.642;2023-12-20T02:40:06;13.03;;;11.73;;
20000;SDS011;10161;41.188;-8.642;2023-12-20T02:42:33;14.00;;;12.60;;
20000;SDS011;10161;41.188;-8.642;2023-12-20T02:45:00;13.83;;;12.43;;
20000;SDS011;10161;41.188;-8.642;2023-12-20T02:47:27;14.17;;;12.77;;
20000;SDS011;10161;41.188;-8.642;2023-12-20T02:49:55;14.60;;;13.10;;
20000;SDS011;10161;41.188;-8.642;2023-12-20T02:52:22;13.40;;;12.10;;
20000;SDS011;10161;41.188;-8.642;2023-12-20T02:54:49;13.87;;;12.47;;
20000;SDS011;10161;41.188;-8.642;2023-12-20T02:57:18;15.17;;;13.67;;
20000;SDS011;10161;41.188;-8.642;2023-12-20T02:59:45;15.27;;;13.67;;
20000;SDS011;10161;41.188;-8.642;2023-12-20T03:02:12;13.73;;;12.37;;
20000;SDS011;10161;41.188;-8.642;2023-12-20T03:04:39;14.53;;;13.10;;
20000;SDS011;10161;41.188;-8.642;2023-12-20T03:07:06;14.87;;;13.27;;
20000;SDS011;10161;41.188;-8.642;2023-12-20T03:09:32;14.17;;;12.67;;
20000;SDS011;10161;41.188;-8.642;2023-12-20T03:11:59;14.10;;;12.50;;
20000;SDS011;10161;41.188;-8.642;2023-12-20T03:14:28;13.43;;;12.13;;
20000;SDS011;10161;41.188;-8.642;2023-12-20T03:16:55;14.07;;;12.57;;
20000;SDS011;10161;41.188;-8.642;2023-12-20T03:19:21;13.90;;;12.57;;
20000;SDS011;10161;41.188;-8.642;2023-12-20T03:21:48;13.63;;;12.33;;
20000;SDS011;10161;41.188;-8.642;2023-12-20T03:24:15;13.60;;;12.30;;
20000;SDS011;10161;41.188;-8.642;2023-12-20T03:26:42;15.33;;;12.80;;
20000;SDS011;10161;41.188;-8.642;2023-12-20T03:29:09;14.40;;;12.90;;
20000;SDS011;10161;41.188;-8.642;2023-12-20T03:31:37;13.80;;;12.50;;
20000;SDS011;10161;41.188;-8.642;2023-12-20T03:34:04;14.03;;;12.63;;
20000;SDS011;10161;41.188;-8.642;2023-12-20T03:36:31;13.90;;;12.43;;
20000;SDS011;10161;41.188;-8.642;2023-12-20T03:38:58;14.30;;;12.80;;
20000;SDS011;10161;41.188;-8.642;2023-12-20T03:41:25;13.10;;;11.77;;
20000;SDS011;10161;41.188;-8.642;2023-12-20T03:43:52;13.13;;;11.83;;
20000;SDS011;10161;41.188;-8.642;2023-12-20T03:46:19;13.27;;;11.87;;
20000;SDS011;10161;41.188;-8.642;2023-12-20T03:48:47;13.53;;;12.20;;
20000;SDS011;10161;41.188;-8.642;2023-12-20T03:51:14;13.20;;;11.90;;
20000;SDS011;10161;41.188;-8.642;2023-12-20T03:53:41;13.07;;;11.77;;
20000;SDS011;10161;41.188;-8.642;2023-12-20T03:56:08;13.23;;;12.00;;
20000;SDS011;10161;41.188;-8.642;2023-12-20T03:58:35;12.93;;;11.70;;
20000;SDS011;10161;41.188;-8.642;2023-12-20T04:01:02;13.50;;;12.20;;
20000;SDS011;10161;41.188;-8.642;2023-12-20T04:03:29;14.13;;;12.73;;
20000;SDS011;10161;41.188;-8.642;2023-12-20T04:05:57;12.67;;;11.47;;
20000;SDS011;10161;41.188;-8.642;2023-12-20T04:08:24;12.80;;;11.53;;
20000;SDS011;10161;41.188;-8.642;2023-12-20T04:10:51;13.33;;;12.00;;
20000;SDS011;10161;41.188;-8.642;2023-12-20T04:13:18;13.03;;;11.70;;
20000;SDS011;10161;41.188;-8.642;2023-12-20T04:15:45;13.40;;;12.10;;
20000;SDS011;10161;41.188;-8.642;2023-12-20T04:18:13;13.03;;;11.73;;
20000;SDS011;10161;41.188;-8.642;2023-12-20T04:20:40;12.90;;;11.70;;
20000;SDS011;10161;41.188;-8.642;2023-12-20T04:23:08;13.27;;;11.97;;
20000;SDS011;10161;41.188;-8.642;2023-12-20T04:25:35;13.63;;;12.33;;
20000;SDS011;10161;41.188;-8.642;2023-12-20T04:28:02;12.63;;;11.33;;
20000;SDS011;10161;41.188;-8.642;2023-12-20T04:30:29;13.77;;;12.43;;
20000;SDS011;10161;41.188;-8.642;2023-12-20T04:32:56;12.67;;;11.50;;
20000;SDS011;10161;41.188;-8.642;2023-12-20T04:35:23;12.23;;;11.13;;
20000;SDS011;10161;41.188;-8.642;2023-12-20T04:37:51;12.10;;;10.93;;
20000;SDS011;10161;41.188;-8.642;2023-12-20T04:40:19;12.60;;;11.40;;
20000;SDS011;10161;41.188;-8.642;2023-12-20T04:42:46;13.20;;;11.90;;
20000;SDS011;10161;41.188;-8.642;2023-12-20T04:45:13;12.30;;;11.10;;
20000;SDS011;10161;41.188;-8.642;2023-12-20T04:47:41;12.10;;;10.90;;
20000;SDS011;10161;41.188;-8.642;2023-12-20T04:50:08;11.87;;;10.77;;
20000;SDS011;10161;41.188;-8.642;2023-12-20T04:52:38;12.67;;;11.40;;
20000;SDS011;10161;41.188;-8.642;2023-12-20T04:55:05;12.67;;;11.33;;
20000;SDS011;10161;41.188;-8.642;2023-12-20T04:57:35;11.47;;;10.30;;
20000;SDS011;10161;41.188;-8.642;2023-12-20T05:00:02;12.60;;;11.23;;
20000;SDS011;10161;41.188;-8.642;2023-12-20T05:02:29;12.60;;;11.40;;
20000;SDS011;10161;41.188;-8.642;2023-12-20T05:04:56;11.17;;;10.07;;
20000;SDS011;10161;41.188;-8.642;2023-12-20T05:07:23;13.43;;;12.00;;
20000;SDS011;10161;41.188;-8.642;2023-12-20T05:09:50;12.00;;;10.77;;
20000;SDS011;10161;41.188;-8.642;2023-12-20T05:12:17;11.60;;;10.50;;
20000;SDS011;10161;41.188;-8.642;2023-12-20T05:14:45;13.40;;;12.00;;
20000;SDS011;10161;41.188;-8.642;2023-12-20T05:17:12;12.73;;;11.43;;
20000;SDS011;10161;41.188;-8.642;2023-12-20T05:19:39;11.83;;;10.70;;
20000;SDS011;10161;41.188;-8.642;2023-12-20T05:22:06;12.80;;;11.60;;
20000;SDS011;10161;41.188;-8.642;2023-12-20T05:24:33;12.20;;;11.00;;
20000;SDS011;10161;41.188;-8.642;2023-12-20T05:27:00;12.20;;;11.00;;
20000;SDS011;10161;41.188;-8.642;2023-12-20T05:29:27;12.50;;;11.33;;
20000;SDS011;10161;41.188;-8.642;2023-12-20T05:31:55;12.53;;;11.30;;
20000;SDS011;10161;41.188;-8.642;2023-12-20T05:34:24;11.67;;;10.60;;
20000;SDS011;10161;41.188;-8.642;2023-12-20T05:36:52;12.03;;;10.90;;
20000;SDS011;10161;41.188;-8.642;2023-12-20T05:39:18;11.40;;;10.20;;
20000;SDS011;10161;41.188;-8.642;2023-12-20T05:41:45;12.73;;;11.50;;
20000;SDS011;10161;41.188;-8.642;2023-12-20T05:44:13;12.17;;;11.07;;
20000;SDS011;10161;41.188;-8.642;2023-12-20T05:46:40;11.73;;;10.60;;
20000;SDS011;10161;41.188;-8.642;2023-12-20T05:49:08;11.20;;;10.10;;
20000;SDS011;10161;41.188;-8.642;2023-12-20T05:51:35;12.87;;;11.03;;
20000;SDS011;10161;41.188;-8.642;2023-12-20T05:54:03;11.20;;;10.10;;
20000;SDS011;10161;41.188;-8.642;2023-12-20T05:56:30;11.33;;;10.23;;
20000;SDS011;10161;41.188;-8.642;2023-12-20T05:58:57;12.10;;;10.80;;
20000;SDS011;10161;41.188;-8.642;2023-12-20T06:01:24;11.77;;;10.67;;
20000;SDS011;10161;41.188;-8.642;2023-12-20T06:03:51;11.93;;;10.80;;
20000;SDS011;10161;41.188;-8.642;2023-12-20T06:06:19;10.80;;;9.80;;
20000;SDS011;10161;41.188;-8.642;2023-12-20T06:08:46;10.97;;;9.93;;
20000;SDS011;10161;41.188;-8.642;2023-12-20T06:11:13;11.10;;;10.10;;
20000;SDS011;10161;41.188;-8.642;2023-12-20T06:13:40;11.77;;;10.60;;
20000;SDS011;10161;41.188;-8.642;2023-12-20T06:16:07;12.63;;;11.43;;
20000;SDS011;10161;41.188;-8.642;2023-12-20T06:18:34;12.13;;;10.93;;
20000;SDS011;10161;41.188;-8.642;2023-12-20T06:21:02;12.80;;;11.60;;
20000;SDS011;10161;41.188;-8.642;2023-12-20T06:23:30;12.13;;;11.00;;
20000;SDS011;10161;41.188;-8.642;2023-12-20T06:25:57;12.30;;;11.10;;
20000;SDS011;10161;41.188;-8.642;2023-12-20T06:28:24;12.17;;;10.97;;
20000;SDS011;10161;41.188;-8.642;2023-12-20T06:30:51;12.20;;;10.90;;
20000;SDS011;10161;41.188;-8.642;2023-12-20T06:33:19;14.17;;;12.77;;
20000;SDS011;10161;41.188;-8.642;2023-12-20T06:35:47;12.67;;;11.47;;
20000;SDS011;10161;41.188;-8.642;2023-12-20T06:38:14;12.40;;;11.20;;
20000;SDS011;10161;41.188;-8.642;2023-12-20T06:40:42;12.13;;;10.93;;
20000;SDS011;10161;41.188;-8.642;2023-12-20T06:43:09;13.03;;;11.80;;
20000;SDS011;10161;41.188;-8.642;2023-12-20T06:45:36;12.70;;;11.43;;
20000;SDS011;10161;41.188;-8.642;2023-12-20T06:48:04;13.17;;;11.97;;
20000;SDS011;10161;41.188;-8.642;2023-12-20T06:50:31;12.70;;;11.50;;
20000;SDS011;10161;41.188;-8.642;2023-12-20T06:52:58;13.13;;;11.60;;
20000;SDS011;10161;41.188;-8.642;2023-12-20T06:55:31;13.50;;;12.10;;
20000;SDS011;10161;41.188;-8.642;2023-12-20T06:58:00;12.70;;;11.47;;
20000;SDS011;10161;41.188;-8.642;2023-12-20T07:00:27;13.20;;;11.90;;
20000;SDS011;10161;41.188;-8.642;2023-12-20T07:02:54;13.27;;;11.87;;
20000;SDS011;10161;41.188;-8.642;2023-12-20T07:05:21;12.57;;;11.27;;
20000;SDS011;10161;41.188;-8.642;2023-12-20T07:07:48;12.60;;;11.27;;
20000;SDS011;10161;41.188;-8.642;2023-12-20T07:10:15;13.80;;;12.50;;
20000;SDS011;10161;41.188;-8.642;2023-12-20T07:12:42;12.97;;;11.77;;
20000;SDS011;10161;41.188;-8.642;2023-12-20T07:15:11;12.20;;;11.10;;
20000;SDS011;10161;41.188;-8.642;2023-12-20T07:17:37;13.07;;;11.83;;
20000;SDS011;10161;41.188;-8.642;2023-12-20T07:20:05;12.67;;;11.47;;
20000;SDS011;10161;41.188;-8.642;2023-12-20T07:22:35;12.20;;;11.00;;
20000;SDS011;10161;41.188;-8.642;2023-12-20T07:25:03;12.20;;;11.00;;
20000;SDS011;10161;41.188;-8.642;2023-12-20T07:27:30;12.60;;;11.40;;
20000;SDS011;10161;41.188;-8.642;2023-12-20T07:29:57;12.60;;;11.30;;
20000;SDS011;10161;41.188;-8.642;2023-12-20T07:32:25;12.37;;;11.17;;
20000;SDS011;10161;41.188;-8.642;2023-12-20T07:34:52;12.00;;;10.90;;
20000;SDS011;10161;41.188;-8.642;2023-12-20T07:37:20;11.47;;;10.40;;
20000;SDS011;10161;41.188;-8.642;2023-12-20T07:39:46;11.47;;;10.27;;
20000;SDS011;10161;41.188;-8.642;2023-12-20T07:42:13;11.77;;;10.57;;
20000;SDS011;10161;41.188;-8.642;2023-12-20T07:44:40;10.80;;;9.80;;
20000;SDS011;10161;41.188;-8.642;2023-12-20T07:47:07;11.03;;;10.03;;
20000;SDS011;10161;41.188;-8.642;2023-12-20T07:49:36;11.80;;;10.67;;
20000;SDS011;10161;41.188;-8.642;2023-12-20T07:52:03;10.60;;;9.60;;
20000;SDS011;10161;41.188;-8.642;2023-12-20T07:54:30;11.10;;;10.00;;
20000;SDS011;10161;41.188;-8.642;2023-12-20T07:56:57;10.23;;;9.23;;
20000;SDS011;10161;41.188;-8.642;2023-12-20T07:59:24;10.17;;;9.17;;
20000;SDS011;10161;41.188;-8.642;2023-12-20T08:01:51;10.00;;;9.00;;
20000;SDS011;10161;41.188;-8.642;2023-12-20T08:04:18;10.40;;;9.37;;
20000;SDS011;10161;41.188;-8.642;2023-12-20T08:06:46;9.77;;;8.83;;
20000;SDS011;10161;41.188;-8.642;2023-12-20T08:09:13;10.43;;;9.43;;
20000;SDS011;10161;41.188;-8.642;2023-12-20T08:11:40;10.40;;;8.90;;
20000;SDS011;10161;41.188;-8.642;2023-12-20T08:14:11;9.33;;;8.53;;
20000;SDS011;10161;41.188;-8.642;2023-12-20T08:16:38;9.40;;;8.50;;
20000;SDS011;10161;41.188;-8.642;2023-12-20T08:19:05;9.13;;;8.23;;
20000;SDS011;10161;41.188;-8.642;2023-12-20T08:21:32;8.10;;;7.40;;
20000;SDS011;10161;41.188;-8.642;2023-12-20T08:24:00;8.90;;;8.10;;
20000;SDS011;10161;41.188;-8.642;2023-12-20T08:26:28;8.33;;;7.53;;
20000;SDS011;10161;41.188;-8.642;2023-12-20T08:28:54;8.30;;;7.60;;
20000;SDS011;10161;41.188;-8.642;2023-12-20T08:31:21;8.23;;;7.43;;
20000;SDS011;10161;41.188;-8.642;2023-12-20T08:33:49;8.20;;;7.40;;
20000;SDS011;10161;41.188;-8.642;2023-12-20T08:36:16;7.63;;;6.90;;
20000;SDS011;10161;41.188;-8.642;2023-12-20T08:38:43;7.30;;;6.60;;
20000;SDS011;10161;41.188;-8.642;2023-12-20T08:41:12;8.50;;;7.70;;
20000;SDS011;10161;41.188;-8.642;2023-12-20T08:43:39;7.90;;;7.10;;
20000;SDS011;10161;41.188;-8.642;2023-12-20T08:46:06;6.90;;;6.30;;
20000;SDS011;10161;41.188;-8.642;2023-12-20T08:48:34;7.43;;;6.73;;
20000;SDS011;10161;41.188;-8.642;2023-12-20T08:51:02;7.57;;;6.77;;
20000;SDS011;10161;41.188;-8.642;2023-12-20T08:53:29;7.53;;;6.83;;
20000;SDS011;10161;41.188;-8.642;2023-12-20T08:55:56;6.63;;;6.03;;
20000;SDS011;10161;41.188;-8.642;2023-12-20T08:58:27;6.73;;;6.13;;
20000;SDS011;10161;41.188;-8.642;2023-12-20T09:00:54;6.63;;;6.03;;
20000;SDS011;10161;41.188;-8.642;2023-12-20T09:03:22;6.40;;;5.80;;
20000;SDS011;10161;41.188;-8.642;2023-12-20T09:05:49;6.97;;;6.27;;
20000;SDS011;10161;41.188;-8.642;2023-12-20T09:08:16;6.27;;;5.67;;
20000;SDS011;10161;41.188;-8.642;2023-12-20T09:10:43;5.90;;;5.40;;
20000;SDS011;10161;41.188;-8.642;2023-12-20T09:13:10;6.90;;;6.30;;
20000;SDS011;10161;41.188;-8.642;2023-12-20T09:15:39;6.83;;;6.23;;
20000;SDS011;10161;41.188;-8.642;2023-12-20T09:18:06;6.03;;;5.40;;
20000;SDS011;10161;41.188;-8.642;2023-12-20T09:20:33;5.63;;;5.17;;
20000;SDS011;10161;41.188;-8.642;2023-12-20T09:23:00;6.90;;;5.80;;
20000;SDS011;10161;41.188;-8.642;2023-12-20T09:25:26;6.10;;;5.50;;
20000;SDS011;10161;41.188;-8.642;2023-12-20T09:27:55;6.10;;;5.50;;
20000;SDS011;10161;41.188;-8.642;2023-12-20T09:30:21;5.83;;;5.20;;
20000;SDS011;10161;41.188;-8.642;2023-12-20T09:32:50;9.40;;;5.43;;
20000;SDS011;10161;41.188;-8.642;2023-12-20T09:35:17;7.67;;;4.87;;
20000;SDS011;10161;41.188;-8.642;2023-12-20T09:37:44;5.27;;;4.77;;
20000;SDS011;10161;41.188;-8.642;2023-12-20T09:40:12;5.30;;;4.67;;
20000;SDS011;10161;41.188;-8.642;2023-12-20T09:42:42;4.77;;;4.27;;
20000;SDS011;10161;41.188;-8.642;2023-12-20T09:45:15;4.90;;;4.50;;
20000;SDS011;10161;41.188;-8.642;2023-12-20T09:47:46;4.67;;;4.27;;
20000;SDS011;10161;41.188;-8.642;2023-12-20T09:50:14;4.80;;;4.30;;
20000;SDS011;10161;41.188;-8.642;2023-12-20T09:52:41;5.07;;;4.57;;
20000;SDS011;10161;41.188;-8.642;2023-12-20T09:55:08;3.80;;;3.50;;
20000;SDS011;10161;41.188;-8.642;2023-12-20T09:57:36;3.50;;;3.20;;
20000;SDS011;10161;41.188;-8.642;2023-12-20T10:00:03;3.70;;;3.40;;
20000;SDS011;10161;41.188;-8.642;2023-12-20T10:02:32;4.20;;;3.80;;
20000;SDS011;10161;41.188;-8.642;2023-12-20T10:04:59;4.00;;;3.60;;
20000;SDS011;10161;41.188;-8.642;2023-12-20T10:07:29;3.73;;;3.43;;
20000;SDS011;10161;41.188;-8.642;2023-12-20T10:09:56;4.00;;;3.70;;
20000;SDS011;10161;41.188;-8.642;2023-12-20T10:12:23;3.83;;;3.43;;
20000;SDS011;10161;41.188;-8.642;2023-12-20T10:14:50;5.33;;;3.60;;
20000;SDS011;10161;41.188;-8.642;2023-12-20T10:17:17;3.90;;;3.50;;
20000;SDS011;10161;41.188;-8.642;2023-12-20T10:19:44;4.33;;;3.57;;
20000;SDS011;10161;41.188;-8.642;2023-12-20T10:22:11;3.73;;;3.40;;
20000;SDS011;10161;41.188;-8.642;2023-12-20T10:24:41;3.97;;;3.57;;
20000;SDS011;10161;41.188;-8.642;2023-12-20T10:27:08;4.03;;;3.63;;
20000;SDS011;10161;41.188;-8.642;2023-12-20T10:29:35;3.77;;;3.40;;
20000;SDS011;10161;41.188;-8.642;2023-12-20T10:32:22;3.20;;;2.90;;
20000;SDS011;10161;41.188;-8.642;2023-12-20T10:34:49;3.40;;;3.10;;
20000;SDS011;10161;41.188;-8.642;2023-12-20T10:37:16;3.87;;;3.10;;
20000;SDS011;10161;41.188;-8.642;2023-12-20T10:39:45;3.87;;;3.57;;
20000;SDS011;10161;41.188;-8.642;2023-12-20T10:42:16;6.83;;;3.30;;
20000;SDS011;10161;41.188;-8.642;2023-12-20T10:44:43;3.50;;;3.20;;
20000;SDS011;10161;41.188;-8.642;2023-12-20T10:47:10;3.37;;;3.07;;
20000;SDS011;10161;41.188;-8.642;2023-12-20T10:49:38;3.60;;;3.30;;
20000;SDS011;10161;41.188;-8.642;2023-12-20T10:52:05;3.30;;;3.00;;
20000;SDS011;10161;41.188;-8.642;2023-12-20T10:54:33;3.13;;;2.80;;
20000;SDS011;10161;41.188;-8.642;2023-12-20T10:57:01;3.60;;;3.10;;
20000;SDS011;10161;41.188;-8.642;2023-12-20T10:59:32;3.23;;;2.93;;
20000;SDS011;10161;41.188;-8.642;2023-12-20T11:01:59;3.53;;;3.23;;
20000;SDS011;10161;41.188;-8.642;2023-12-20T11:04:31;3.10;;;2.80;;
20000;SDS011;10161;41.188;-8.642;2023-12-20T11:07:06;3.10;;;2.83;;
20000;SDS011;10161;41.188;-8.642;2023-12-20T11:09:40;3.37;;;3.07;;
20000;SDS011;10161;41.188;-8.642;2023-12-20T11:12:14;4.23;;;2.90;;
20000;SDS011;10161;41.188;-8.642;2023-12-20T11:14:45;3.10;;;2.80;;
20000;SDS011;10161;41.188;-8.642;2023-12-20T11:17:14;2.67;;;2.43;;
20000;SDS011;10161;41.188;-8.642;2023-12-20T11:22:35;2.80;;;2.53;;
20000;SDS011;10161;41.188;-8.642;2023-12-20T11:25:03;2.50;;;2.30;;
20000;SDS011;10161;41.188;-8.642;2023-12-20T11:27:34;2.70;;;2.50;;
20000;SDS011;10161;41.188;-8.642;2023-12-20T11:30:02;2.90;;;2.70;;
20000;SDS011;10161;41.188;-8.642;2023-12-20T11:32:33;2.87;;;2.57;;
20000;SDS011;10161;41.188;-8.642;2023-12-20T11:35:01;2.77;;;2.57;;
20000;SDS011;10161;41.188;-8.642;2023-12-20T11:37:42;2.87;;;2.43;;
20000;SDS011;10161;41.188;-8.642;2023-12-20T11:40:12;3.20;;;2.90;;
20000;SDS011;10161;41.188;-8.642;2023-12-20T11:42:42;3.13;;;2.83;;
20000;SDS011;10161;41.188;-8.642;2023-12-20T11:45:11;2.97;;;2.67;;
20000;SDS011;10161;41.188;-8.642;2023-12-20T11:47:41;2.80;;;2.60;;
20000;SDS011;10161;41.188;-8.642;2023-12-20T11:50:09;3.23;;;2.93;;
20000;SDS011;10161;41.188;-8.642;2023-12-20T11:52:36;3.07;;;2.67;;
20000;SDS011;10161;41.188;-8.642;2023-12-20T11:55:03;2.70;;;2.50;;
20000;SDS011;10161;41.188;-8.642;2023-12-20T11:57:31;2.90;;;2.60;;
20000;SDS011;10161;41.188;-8.642;2023-12-20T11:59:59;3.70;;;3.13;;
20000;SDS011;10161;41.188;-8.642;2023-12-20T12:02:26;2.87;;;2.50;;
20000;SDS011;10161;41.188;-8.642;2023-12-20T12:04:53;2.67;;;2.33;;
20000;SDS011;10161;41.188;-8.642;2023-12-20T12:07:21;2.77;;;2.57;;
20000;SDS011;10161;41.188;-8.642;2023-12-20T12:09:48;2.57;;;2.37;;
20000;SDS011;10161;41.188;-8.642;2023-12-20T12:12:15;2.47;;;2.23;;
20000;SDS011;10161;41.188;-8.642;2023-12-20T12:14:43;2.77;;;2.53;;
20000;SDS011;10161;41.188;-8.642;2023-12-20T12:17:12;2.67;;;2.47;;
20000;SDS011;10161;41.188;-8.642;2023-12-20T12:19:39;2.97;;;2.57;;
20000;SDS011;10161;41.188;-8.642;2023-12-20T12:22:07;2.37;;;2.17;;
20000;SDS011;10161;41.188;-8.642;2023-12-20T12:24:37;2.97;;;2.50;;
20000;SDS011;10161;41.188;-8.642;2023-12-20T12:27:05;2.43;;;2.20;;
20000;SDS011;10161;41.188;-8.642;2023-12-20T12:29:32;2.63;;;2.43;;
20000;SDS011;10161;41.188;-8.642;2023-12-20T12:31:59;2.97;;;2.30;;
20000;SDS011;10161;41.188;-8.642;2023-12-20T12:34:28;2.20;;;2.00;;
20000;SDS011;10161;41.188;-8.642;2023-12-20T12:36:55;1.90;;;1.80;;
20000;SDS011;10161;41.188;-8.642;2023-12-20T12:39:22;2.37;;;2.17;;
20000;SDS011;10161;41.188;-8.642;2023-12-20T12:41:50;2.53;;;2.03;;
20000;SDS011;10161;41.188;-8.642;2023-12-20T12:44:17;1.90;;;1.80;;
20000;SDS011;10161;41.188;-8.642;2023-12-20T12:46:44;3.80;;;2.50;;
20000;SDS011;10161;41.188;-8.642;2023-12-20T12:49:11;2.67;;;2.20;;
20000;SDS011;10161;41.188;-8.642;2023-12-20T12:51:39;1.83;;;1.73;;
20000;SDS011;10161;41.188;-8.642;2023-12-20T12:54:06;2.00;;;1.80;;
20000;SDS011;10161;41.188;-8.642;2023-12-20T12:56:34;2.53;;;1.93;;
20000;SDS011;10161;41.188;-8.642;2023-12-20T12:59:01;2.03;;;1.90;;
20000;SDS011;10161;41.188;-8.642;2023-12-20T13:01:28;2.17;;;2.00;;
20000;SDS011;10161;41.188;-8.642;2023-12-20T13:03:55;1.80;;;1.70;;
20000;SDS011;10161;41.188;-8.642;2023-12-20T13:06:22;2.20;;;2.00;;
20000;SDS011;10161;41.188;-8.642;2023-12-20T13:08:50;2.50;;;1.43;;
20000;SDS011;10161;41.188;-8.642;2023-12-20T13:11:17;2.43;;;1.83;;
20000;SDS011;10161;41.188;-8.642;2023-12-20T13:13:44;1.80;;;1.70;;
20000;SDS011;10161;41.188;-8.642;2023-12-20T13:16:12;1.70;;;1.60;;
20000;SDS011;10161;41.188;-8.642;2023-12-20T13:18:39;2.63;;;1.80;;
20000;SDS011;10161;41.188;-8.642;2023-12-20T13:21:07;1.70;;;1.57;;
20000;SDS011;10161;41.188;-8.642;2023-12-20T13:23:34;1.70;;;1.60;;
20000;SDS011;10161;41.188;-8.642;2023-12-20T13:26:03;1.83;;;1.60;;
20000;SDS011;10161;41.188;-8.642;2023-12-20T13:28:30;1.80;;;1.70;;
20000;SDS011;10161;41.188;-8.642;2023-12-20T13:30:57;2.00;;;1.80;;
20000;SDS011;10161;41.188;-8.642;2023-12-20T13:33:23;1.87;;;1.73;;
20000;SDS011;10161;41.188;-8.642;2023-12-20T13:35:50;2.00;;;1.80;;
20000;SDS011;10161;41.188;-8.642;2023-12-20T13:38:17;1.80;;;1.70;;
20000;SDS011;10161;41.188;-8.642;2023-12-20T13:40:44;2.13;;;1.73;;
20000;SDS011;10161;41.188;-8.642;2023-12-20T13:43:13;1.60;;;1.50;;
20000;SDS011;10161;41.188;-8.642;2023-12-20T13:45:42;1.70;;;1.60;;
20000;SDS011;10161;41.188;-8.642;2023-12-20T13:48:08;1.53;;;1.37;;
20000;SDS011;10161;41.188;-8.642;2023-12-20T13:50:35;1.87;;;1.57;;
20000;SDS011;10161;41.188;-8.642;2023-12-20T13:53:02;1.60;;;1.50;;
20000;SDS011;10161;41.188;-8.642;2023-12-20T13:55:30;1.83;;;1.67;;
20000;SDS011;10161;41.188;-8.642;2023-12-20T13:57:57;2.03;;;1.63;;
20000;SDS011;10161;41.188;-8.642;2023-12-20T14:00:25;2.37;;;1.87;;
20000;SDS011;10161;41.188;-8.642;2023-12-20T14:02:52;1.53;;;1.43;;
20000;SDS011;10161;41.188;-8.642;2023-12-20T14:05:19;1.90;;;1.40;;
20000;SDS011;10161;41.188;-8.642;2023-12-20T14:07:48;2.13;;;1.67;;
20000;SDS011;10161;41.188;-8.642;2023-12-20T14:10:15;1.60;;;1.50;;
20000;SDS011;10161;41.188;-8.642;2023-12-20T14:12:42;1.57;;;1.47;;
20000;SDS011;10161;41.188;-8.642;2023-12-20T14:15:10;1.43;;;1.33;;
20000;SDS011;10161;41.188;-8.642;2023-12-20T14:17:39;1.70;;;1.47;;
20000;SDS011;10161;41.188;-8.642;2023-12-20T14:20:07;1.77;;;1.67;;
20000;SDS011;10161;41.188;-8.642;2023-12-20T14:22:34;1.37;;;1.27;;
20000;SDS011;10161;41.188;-8.642;2023-12-20T14:25:04;1.20;;;1.10;;